San Diego, California
Current Conditions -  °F | °C
As of 3:51 AM on Sunday 21 Dec 2014 (Local Time) from KSAN Reporting Station
Few Clouds Few Clouds  
Wind Chill: 58°   Ceiling: Unl
Heat Index: 58°   Visibility: 10mi
Dew Point: 50°   Wind: 0mph
Humidity: 75%   Direction: NA
Pressure: 30.12"   Gusts: NA
Location:  32.72°N, 117.16°W
Report Text: KSAN 211151Z 00000KT 10SM FEW031 14/10 A3012 RMK AO2 SLP199 T01440100 10172 20144 58012 $
Loading
Personal Weather Stations






























Interactive Weather Map New forecast layout! Learn more

10-Day Weather Forecast

Advertisements
Track Severe Weather on mobile